Time;durP1;ratioP1;P1;durP2;ratioP2;P2;SDS_P1;SDS_P2;PMS_P1;PMS_P2;Temp;Humidity;BMP_temperature;BMP_pressure;BME280_temperature;BME280_humidity;BME280_pressure;Samples;Min_cycle;Max_cycle;Signal;HPM_P1;HPM_P2
2022/09/22 00:02:04;;;;;;;4.93;3.10;;;;;;;7.31;100.00;97167.94;5031086;28;20112;-67
2022/09/22 00:04:29;;;;;;;5.35;3.05;;;;;;;7.25;100.00;97170.06;5031226;28;20029;-64
2022/09/22 00:06:56;;;;;;;5.60;3.08;;;;;;;7.25;100.00;97168.13;5031573;28;20029;-66
2022/09/22 00:09:21;;;;;;;7.07;3.53;;;;;;;7.19;100.00;97171.41;5032944;28;20085;-65
2022/09/22 00:11:50;;;;;;;6.25;3.17;;;;;;;7.14;100.00;97171.63;5023660;28;20029;-65
2022/09/22 00:14:22;;;;;;;5.07;3.30;;;;;;;7.13;100.00;97161.84;5033651;28;20030;-65
2022/09/22 00:16:59;;;;;;;4.60;3.15;;;;;;;7.05;100.00;97166.22;5032280;28;20161;-66
2022/09/22 00:19:28;;;;;;;5.82;3.10;;;;;;;7.02;100.00;97159.53;5030342;28;20108;-66
2022/09/22 00:21:54;;;;;;;5.82;3.10;;;;;;;7.03;100.00;97163.03;5030747;28;20034;-66
2022/09/22 00:24:23;;;;;;;6.55;3.00;;;;;;;6.94;100.00;97160.38;5030995;28;20036;-66
2022/09/22 00:26:54;;;;;;;6.63;3.20;;;;;;;6.88;100.00;97164.44;5031353;28;20120;-67
2022/09/22 00:29:19;;;;;;;4.32;3.40;;;;;;;6.86;100.00;97166.66;5017081;28;20219;-65
2022/09/22 00:31:45;;;;;;;6.95;3.50;;;;;;;6.88;100.00;97165.22;5034971;28;20155;-67
2022/09/22 00:34:15;;;;;;;5.03;3.30;;;;;;;6.87;100.00;97171.00;5033837;28;20040;-68
2022/09/22 00:36:41;;;;;;;4.50;3.38;;;;;;;6.82;100.00;97163.81;5034218;28;20104;-67
2022/09/22 00:39:07;;;;;;;5.03;3.20;;;;;;;6.78;100.00;97167.53;5033353;28;20065;-65
2022/09/22 00:41:36;;;;;;;4.63;3.40;;;;;;;6.72;100.00;97171.56;5034500;28;20112;-66
2022/09/22 00:44:16;;;;;;;5.85;3.22;;;;;;;6.76;100.00;97159.69;5034721;28;20029;-66
2022/09/22 00:46:44;;;;;;;5.28;3.10;;;;;;;6.68;100.00;97164.09;5016562;28;20538;-65
2022/09/22 00:49:13;;;;;;;6.30;3.50;;;;;;;6.63;100.00;97158.81;5033904;28;20060;-66
2022/09/22 00:51:42;;;;;;;4.20;3.33;;;;;;;6.63;100.00;97158.03;5035029;28;20029;-64
2022/09/22 00:54:10;;;;;;;5.23;3.30;;;;;;;6.62;100.00;97148.25;5033381;28;20048;-66
2022/09/22 00:56:44;;;;;;;4.78;3.33;;;;;;;6.59;100.00;97143.47;5034227;28;20102;-65
2022/09/22 00:59:14;;;;;;;5.40;3.65;;;;;;;6.62;100.00;97140.88;5017097;28;20371;-67
2022/09/22 01:01:39;;;;;;;;;;;;;;;6.51;100.00;97136.97;5034664;28;20029;-67
2022/09/22 01:04:06;;;;;;;5.47;3.55;;;;;;;6.51;100.00;97139.69;5033078;28;20344;-65
2022/09/22 01:06:33;;;;;;;7.63;3.25;;;;;;;6.55;100.00;97147.97;5016255;28;20390;-66
2022/09/22 01:09:00;;;;;;;5.78;3.40;;;;;;;6.53;100.00;97145.59;5032497;28;20038;-67
2022/09/22 01:11:28;;;;;;;7.72;3.40;;;;;;;6.55;100.00;97140.59;5034081;28;20389;-68
2022/09/22 01:14:24;;;;;;;4.53;3.40;;;;;;;6.53;100.00;97142.06;5018524;28;20088;-65
2022/09/22 01:17:01;;;;;;;8.05;3.33;;;;;;;6.51;100.00;97135.03;5038077;28;20034;-66
2022/09/22 01:19:41;;;;;;;7.95;3.97;;;;;;;6.43;100.00;97135.88;5036420;28;20037;-66
2022/09/22 01:22:31;;;;;;;8.05;3.97;;;;;;;6.40;100.00;97119.44;5034263;28;20034;-66
2022/09/22 01:25:12;;;;;;;9.02;3.95;;;;;;;6.40;100.00;97125.66;5035599;28;20458;-64
2022/09/22 01:27:53;;;;;;;5.90;3.60;;;;;;;6.31;100.00;97122.97;5037682;28;20034;-66
2022/09/22 01:30:31;;;;;;;7.18;3.70;;;;;;;6.27;100.00;97113.09;5036032;28;20017;-66
2022/09/22 01:33:10;;;;;;;6.25;3.20;;;;;;;6.19;100.00;97114.72;5036419;28;20064;-67
2022/09/22 01:35:43;;;;;;;4.53;3.00;;;;;;;6.08;100.00;97113.50;5033498;28;20482;-65
2022/09/22 01:38:21;;;;;;;5.68;3.28;;;;;;;6.09;100.00;97110.44;5033590;28;20064;-66
2022/09/22 01:40:56;;;;;;;7.03;3.92;;;;;;;6.07;100.00;97112.72;5033751;28;20113;-66
2022/09/22 01:43:30;;;;;;;6.85;3.78;;;;;;;6.12;100.00;97109.81;5034010;28;20039;-65
2022/09/22 01:45:58;;;;;;;6.25;3.50;;;;;;;6.18;100.00;97107.69;5015841;28;20044;-65
2022/09/22 01:48:31;;;;;;;4.47;3.15;;;;;;;6.18;100.00;97115.84;5032969;28;20033;-66
2022/09/22 01:51:07;;;;;;;7.57;3.67;;;;;;;6.13;100.00;97110.59;5033467;28;20033;-66
2022/09/22 01:53:41;;;;;;;6.20;3.50;;;;;;;6.09;100.00;97105.00;5033709;28;20037;-67
2022/09/22 01:56:09;;;;;;;5.13;3.53;;;;;;;6.04;100.00;97110.63;5032254;28;20389;-67
2022/09/22 01:58:40;;;;;;;7.63;3.80;;;;;;;6.05;100.00;97112.25;5032471;28;20037;-67
2022/09/22 02:01:09;;;;;;;4.60;3.58;;;;;;;6.03;100.00;97109.06;5032762;28;20119;-67
2022/09/22 02:03:48;;;;;;;6.85;3.85;;;;;;;6.00;100.00;97111.63;5015972;28;20116;-67
2022/09/22 02:06:25;;;;;;;4.38;3.28;;;;;;;5.97;100.00;97106.84;5033013;28;20036;-67
2022/09/22 02:09:08;;;;;;;6.25;3.72;;;;;;;5.93;100.00;97102.00;5031821;28;20037;-66
2022/09/22 02:11:34;;;;;;;4.90;3.35;;;;;;;5.90;100.00;97099.16;5033105;28;20027;-66
2022/09/22 02:14:02;;;;;;;7.93;4.13;;;;;;;5.87;100.00;97091.63;5033057;28;20112;-67
2022/09/22 02:16:27;;;;;;;6.30;4.10;;;;;;;5.79;100.00;97098.72;5033054;28;20095;-66
2022/09/22 02:19:26;;;;;;;5.22;4.05;;;;;;;5.78;100.00;97104.47;5032951;28;20430;-68
2022/09/22 02:21:52;;;;;;;5.82;3.65;;;;;;;5.76;100.00;97102.06;5027768;28;20107;-67
2022/09/22 02:24:30;;;;;;;5.93;3.50;;;;;;;5.73;100.00;97108.16;5031241;28;20033;-66
2022/09/22 02:27:05;;;;;;;5.60;3.53;;;;;;;5.69;100.00;97097.16;5032362;28;20502;-66
2022/09/22 02:29:38;;;;;;;8.30;3.70;;;;;;;5.82;100.00;97094.56;5032734;28;20040;-66
2022/09/22 02:32:08;;;;;;;5.85;3.15;;;;;;;5.92;100.00;97089.56;5031591;28;20033;-66
2022/09/22 02:34:34;;;;;;;6.63;3.10;;;;;;;5.91;100.00;97090.66;5032944;28;20087;-67
2022/09/22 02:37:16;;;;;;;4.10;2.70;;;;;;;5.85;100.00;97092.00;5032282;28;20033;-64
2022/09/22 02:39:52;;;;;;;7.13;3.30;;;;;;;5.93;100.00;97096.56;5030579;28;20032;-65
2022/09/22 02:42:35;;;;;;;4.10;3.20;;;;;;;6.03;100.00;97092.75;5013951;28;20401;-65
2022/09/22 02:45:08;;;;;;;4.35;2.88;;;;;;;5.99;100.00;97094.50;5020143;28;20056;-65
2022/09/22 02:47:49;;;;;;;4.18;3.05;;;;;;;5.88;100.00;97095.97;5047980;28;20046;-64
2022/09/22 02:50:19;;;;;;;6.00;3.00;;;;;;;5.86;100.00;97101.72;5035114;28;20025;-66
2022/09/22 02:52:44;;;;;;;6.55;3.83;;;;;;;5.74;100.00;97096.97;5033262;28;20030;-65
2022/09/22 02:55:12;;;;;;;7.43;3.63;;;;;;;5.66;100.00;97091.56;5031911;28;20502;-64
2022/09/22 02:57:37;;;;;;;7.65;3.10;;;;;;;5.49;100.00;97109.53;5014655;28;20040;-65
2022/09/22 03:00:04;;;;;;;6.43;3.40;;;;;;;5.32;100.00;97109.53;5015165;28;20041;-66
2022/09/22 03:02:30;;;;;;;5.10;3.10;;;;;;;5.10;100.00;97113.25;5031377;28;20030;-65
2022/09/22 03:04:56;;;;;;;5.85;3.30;;;;;;;5.06;100.00;97117.69;5031925;28;20040;-66
2022/09/22 03:07:22;;;;;;;5.55;3.20;;;;;;;5.07;100.00;97116.59;5014247;28;20032;-66
2022/09/22 03:09:47;;;;;;;7.10;3.40;;;;;;;5.05;100.00;97119.63;5031978;28;20025;-65
2022/09/22 03:12:12;;;;;;;6.07;3.15;;;;;;;5.01;100.00;97117.91;5031427;28;20437;-66
2022/09/22 03:14:38;;;;;;;8.38;3.67;;;;;;;4.93;100.00;97116.75;5031972;28;20040;-66
2022/09/22 03:17:04;;;;;;;9.73;3.60;;;;;;;4.78;100.00;97115.31;5031146;28;20037;-66
2022/09/22 03:19:29;;;;;;;5.25;2.95;;;;;;;4.81;100.00;97114.69;5031523;28;20029;-66
2022/09/22 03:21:54;;;;;;;4.22;3.17;;;;;;;4.61;100.00;97124.25;5031327;28;20037;-65
2022/09/22 03:24:20;;;;;;;5.47;3.22;;;;;;;4.62;100.00;97114.97;5034579;28;20037;-66
2022/09/22 03:26:46;;;;;;;6.78;3.40;;;;;;;4.74;100.00;97111.66;5038158;28;20406;-66
2022/09/22 03:29:11;;;;;;;6.03;3.40;;;;;;;4.73;100.00;97116.25;5023780;28;20030;-66
2022/09/22 03:31:37;;;;;;;4.85;3.20;;;;;;;4.66;100.00;97113.22;5030246;28;20029;-65
2022/09/22 03:34:02;;;;;;;6.07;3.13;;;;;;;4.49;100.00;97121.34;5031867;28;20029;-66
2022/09/22 03:36:28;;;;;;;5.43;2.85;;;;;;;4.55;100.00;97123.59;5031251;28;20025;-65
2022/09/22 03:38:53;;;;;;;6.75;3.03;;;;;;;4.50;100.00;97123.75;5030434;28;20398;-64
2022/09/22 03:41:19;;;;;;;8.82;3.30;;;;;;;4.40;100.00;97134.91;5030995;28;20109;-65
2022/09/22 03:43:44;;;;;;;5.18;3.30;;;;;;;4.19;100.00;97138.16;5029952;28;20512;-65
2022/09/22 03:46:10;;;;;;;7.15;2.75;;;;;;;4.27;100.00;97133.09;5031048;28;20398;-66
2022/09/22 03:48:35;;;;;;;5.32;3.50;;;;;;;4.26;100.00;97139.66;5013502;28;20478;-66
2022/09/22 03:51:01;;;;;;;8.48;4.07;;;;;;;4.11;100.00;97143.59;5013639;28;20025;-66
2022/09/22 03:53:27;;;;;;;5.32;3.97;;;;;;;3.97;100.00;97139.06;5030614;28;20471;-66
2022/09/22 03:56:03;;;;;;;5.07;3.38;;;;;;;3.96;100.00;97133.94;5030888;28;20108;-66
2022/09/22 03:58:29;;;;;;;5.32;3.47;;;;;;;4.01;100.00;97145.44;5031246;28;20026;-64
2022/09/22 04:00:54;;;;;;;4.25;3.38;;;;;;;4.02;100.00;97136.22;5031367;28;20022;-62
2022/09/22 04:03:19;;;;;;;5.55;3.30;;;;;;;3.85;100.00;97132.63;5031281;28;20069;-63
2022/09/22 04:05:51;;;;;;;5.53;3.67;;;;;;;3.77;100.00;97134.19;5031239;28;20033;-64
2022/09/22 04:08:16;;;;;;;7.65;3.50;;;;;;;3.85;100.00;97133.41;5029584;28;20517;-65
2022/09/22 04:10:44;;;;;;;7.85;3.92;;;;;;;3.80;100.00;97136.28;5030042;28;20025;-63
2022/09/22 04:13:11;;;;;;;11.77;4.85;;;;;;;3.73;100.00;97131.31;5013294;28;20092;-67
2022/09/22 04:15:39;;;;;;;8.65;4.60;;;;;;;3.71;100.00;97133.53;5029550;28;20545;-66
2022/09/22 04:18:04;;;;;;;7.03;3.83;;;;;;;3.83;100.00;97136.47;5013152;28;20460;-66
2022/09/22 04:20:30;;;;;;;7.10;4.05;;;;;;;3.80;100.00;97131.66;5029711;28;20031;-67
2022/09/22 04:22:55;;;;;;;8.13;3.15;;;;;;;3.84;100.00;97126.41;5030808;28;20092;-66
2022/09/22 04:25:21;;;;;;;7.35;3.65;;;;;;;3.77;100.00;97134.97;5030802;28;20033;-67
2022/09/22 04:27:47;;;;;;;5.18;3.63;;;;;;;3.72;100.00;97132.41;5030924;28;20037;-65
2022/09/22 04:30:13;;;;;;;5.88;3.97;;;;;;;3.76;100.00;97136.13;5030981;28;20035;-66
2022/09/22 04:32:38;;;;;;;15.13;4.45;;;;;;;3.77;100.00;97140.41;5030930;28;20037;-67
2022/09/22 04:35:05;;;;;;;7.45;3.90;;;;;;;3.64;100.00;97135.88;5030266;28;20040;-66
2022/09/22 04:37:30;;;;;;;6.68;4.20;;;;;;;3.51;100.00;97136.75;5030443;28;20092;-67
2022/09/22 04:39:56;;;;;;;4.68;3.55;;;;;;;3.52;100.00;97144.56;5030872;28;20108;-66
2022/09/22 04:42:21;;;;;;;7.07;4.20;;;;;;;3.47;100.00;97146.63;5030974;28;20030;-66
2022/09/22 04:44:46;;;;;;;9.82;5.20;;;;;;;3.52;100.00;97144.56;5030729;28;20029;-66
2022/09/22 04:47:12;;;;;;;7.95;4.47;;;;;;;3.53;100.00;97146.19;5030344;28;20034;-66
2022/09/22 04:49:38;;;;;;;6.47;3.85;;;;;;;3.36;100.00;97146.84;5028807;28;20397;-66
2022/09/22 04:52:03;;;;;;;5.53;3.95;;;;;;;3.27;100.00;97148.72;5030627;28;20418;-67
2022/09/22 04:54:29;;;;;;;7.05;4.45;;;;;;;3.19;100.00;97150.25;5012931;28;20191;-67
2022/09/22 04:56:55;;;;;;;5.85;4.28;;;;;;;3.23;100.00;97145.03;5028547;28;20079;-67
2022/09/22 04:59:20;;;;;;;7.55;4.25;;;;;;;3.13;100.00;97148.75;5029886;28;20044;-66
2022/09/22 05:01:46;;;;;;;6.25;4.25;;;;;;;3.12;100.00;97152.59;5029677;28;20037;-66
2022/09/22 05:04:11;;;;;;;6.43;4.30;;;;;;;3.27;100.00;97154.13;5030697;28;20360;-67
2022/09/22 05:06:37;;;;;;;7.88;4.35;;;;;;;3.26;100.00;97147.13;5030499;28;20029;-66
2022/09/22 05:09:03;;;;;;;9.07;5.05;;;;;;;3.40;100.00;97153.28;5029658;28;20033;-66
2022/09/22 05:11:30;;;;;;;8.73;5.05;;;;;;;3.33;100.00;97161.03;5001082;28;20025;-67
2022/09/22 05:13:57;;;;;;;9.90;4.53;;;;;;;3.23;100.00;97159.34;5042281;28;20034;-67
2022/09/22 05:16:23;;;;;;;6.57;4.93;;;;;;;3.19;100.00;97158.38;5038110;28;20030;-66
2022/09/22 05:18:49;;;;;;;13.77;4.90;;;;;;;3.19;100.00;97157.59;5038772;28;20048;-67
2022/09/22 05:21:17;;;;;;;7.57;4.93;;;;;;;3.21;100.00;97163.47;5040613;28;20049;-65
2022/09/22 05:23:43;;;;;;;14.10;4.88;;;;;;;3.61;100.00;97169.78;5036074;28;20481;-67
2022/09/22 05:26:09;;;;;;;8.40;4.90;;;;;;;4.34;100.00;97157.84;5014455;28;20036;-67
2022/09/22 05:28:35;;;;;;;9.63;4.45;;;;;;;4.96;100.00;97162.28;5033458;28;20025;-67
2022/09/22 05:31:00;;;;;;;7.15;4.45;;;;;;;5.63;100.00;97165.59;5033498;28;20031;-67
2022/09/22 05:33:26;;;;;;;7.82;3.70;;;;;;;6.43;100.00;97160.38;5033589;28;20029;-67
2022/09/22 05:35:51;;;;;;;5.15;3.50;;;;;;;7.27;100.00;97160.47;5039747;28;20468;-65
2022/09/22 05:38:16;;;;;;;9.95;3.28;;;;;;;7.83;100.00;97165.53;5036724;28;20112;-66
2022/09/22 05:40:46;;;;;;;9.63;3.25;;;;;;;8.53;100.00;97158.47;5031915;28;20255;-67
2022/09/22 05:43:12;;;;;;;6.88;3.20;;;;;;;9.10;100.00;97167.63;5033740;28;20029;-67
2022/09/22 05:45:37;;;;;;;5.95;2.72;;;;;;;9.42;100.00;97156.78;5033170;28;20049;-66
2022/09/22 05:48:03;;;;;;;3.90;2.50;;;;;;;10.00;100.00;97161.91;5033936;28;20063;-66
2022/09/22 05:50:29;;;;;;;5.40;3.17;;;;;;;10.48;97.14;97169.00;5033519;28;20025;-67
2022/09/22 05:53:05;;;;;;;4.72;2.35;;;;;;;11.30;93.80;97161.03;5031842;28;20029;-67
2022/09/22 05:55:31;;;;;;;5.32;2.40;;;;;;;11.69;89.58;97163.00;5033242;28;20485;-67
2022/09/22 05:57:57;;;;;;;6.80;2.97;;;;;;;12.57;85.08;97170.44;5033513;28;20033;-67
2022/09/22 06:00:22;;;;;;;6.93;2.30;;;;;;;13.16;81.20;97168.16;5032471;28;20132;-67
2022/09/22 06:02:48;;;;;;;11.18;2.30;;;;;;;13.41;76.52;97165.75;5033010;28;20151;-67
2022/09/22 06:05:13;;;;;;;10.18;2.38;;;;;;;13.44;77.11;97169.75;5033141;28;20044;-68
2022/09/22 06:07:39;;;;;;;7.93;2.53;;;;;;;13.53;76.62;97168.28;5031688;28;20520;-67
2022/09/22 06:10:05;;;;;;;4.80;2.50;;;;;;;13.43;76.61;97165.41;5024855;28;20025;-67
2022/09/22 06:12:31;;;;;;;7.97;2.58;;;;;;;13.52;77.12;97174.16;5032913;28;20040;-67
2022/09/22 06:14:56;;;;;;;6.63;2.35;;;;;;;13.42;76.54;97170.13;5032867;28;20033;-67
2022/09/22 06:17:22;;;;;;;5.55;2.20;;;;;;;14.25;72.99;97165.50;5032779;28;20490;-67
2022/09/22 06:19:49;;;;;;;5.43;2.00;;;;;;;14.82;72.03;97168.78;5032912;28;20390;-67
2022/09/22 06:22:15;;;;;;;6.78;2.63;;;;;;;15.29;69.63;97169.06;5031995;28;20736;-67
2022/09/22 06:24:41;;;;;;;3.22;2.13;;;;;;;15.32;66.81;97167.47;5030445;28;20030;-66
2022/09/22 06:27:07;;;;;;;4.07;2.25;;;;;;;15.09;64.95;97166.56;5032628;28;20049;-67
2022/09/22 06:29:32;;;;;;;5.80;2.47;;;;;;;15.64;62.75;97162.09;5032851;28;20119;-67
2022/09/22 06:31:58;;;;;;;9.73;2.30;;;;;;;15.46;60.22;97162.03;5032551;28;20034;-68
2022/09/22 06:34:25;;;;;;;3.80;2.42;;;;;;;15.61;60.53;97157.34;5034007;28;20037;-66
2022/09/22 06:36:54;;;;;;;8.25;2.45;;;;;;;16.84;57.10;97167.47;5032805;28;20048;-67
2022/09/22 06:39:21;;;;;;;3.85;2.40;;;;;;;17.83;53.00;97161.25;5033738;28;20080;-67
2022/09/22 06:41:46;;;;;;;5.18;2.28;;;;;;;17.34;53.00;97161.03;5033491;28;20385;-66
2022/09/22 06:44:13;;;;;;;9.90;2.20;;;;;;;17.26;53.10;97167.78;5032476;28;20029;-69
2022/09/22 06:46:38;;;;;;;3.72;2.28;;;;;;;17.57;52.03;97161.38;5032610;28;20053;-67
2022/09/22 06:49:04;;;;;;;4.65;2.38;;;;;;;17.90;49.92;97159.25;5030917;28;20065;-67
2022/09/22 06:51:32;;;;;;;4.05;2.28;;;;;;;17.72;49.89;97159.31;5032163;28;20013;-66
2022/09/22 06:53:58;;;;;;;3.88;2.45;;;;;;;17.04;52.37;97154.00;5031925;28;20540;-65
2022/09/22 06:56:26;;;;;;;6.15;2.58;;;;;;;17.07;53.55;97157.94;5030373;28;20034;-66
2022/09/22 06:58:53;;;;;;;4.50;2.10;;;;;;;18.85;48.65;97162.97;5031963;28;20048;-66
2022/09/22 07:01:18;;;;;;;5.75;3.08;;;;;;;18.97;46.91;97154.13;5032837;28;20112;-65
2022/09/22 07:03:45;;;;;;;4.70;2.50;;;;;;;17.87;49.48;97157.28;5030624;28;20432;-66
2022/09/22 07:06:12;;;;;;;4.63;2.90;;;;;;;19.20;47.54;97159.06;5013425;28;20021;-66
2022/09/22 07:08:38;;;;;;;4.35;2.95;;;;;;;18.09;49.96;97162.72;5032299;28;20425;-65
2022/09/22 07:11:08;;;;;;;4.95;2.70;;;;;;;17.05;53.21;97163.09;5032731;28;20115;-67
2022/09/22 07:13:38;;;;;;;4.15;2.60;;;;;;;17.27;53.68;97158.28;5032437;28;20040;-66
2022/09/22 07:16:10;;;;;;;4.63;2.45;;;;;;;15.21;56.88;97154.41;5031870;28;20029;-66
2022/09/22 07:18:40;;;;;;;5.80;2.97;;;;;;;14.25;64.81;97152.53;5028336;28;20089;-66
2022/09/22 07:21:33;;;;;;;5.50;2.80;;;;;;;12.23;71.63;97160.06;5013032;28;20033;-65
2022/09/22 07:23:59;;;;;;;5.00;3.17;;;;;;;11.19;82.42;97152.56;5034058;28;20052;-66
2022/09/22 07:26:33;;;;;;;5.35;3.20;;;;;;;11.01;83.45;97154.16;5019460;28;20068;-65
2022/09/22 07:29:01;;;;;;;6.63;3.10;;;;;;;12.22;77.80;97154.94;5041786;28;20061;-66
2022/09/22 07:31:30;;;;;;;5.38;3.22;;;;;;;11.01;80.50;97145.91;5020303;28;20053;-67
2022/09/22 07:33:59;;;;;;;8.45;3.15;;;;;;;10.75;86.43;97147.31;5006385;28;20583;-66
2022/09/22 07:36:26;;;;;;;6.13;3.00;;;;;;;11.83;80.96;97155.81;5017451;28;20060;-66
2022/09/22 07:38:54;;;;;;;5.10;2.72;;;;;;;11.51;82.09;97152.44;5022448;28;20104;-67
2022/09/22 07:41:23;;;;;;;5.00;3.03;;;;;;;11.99;77.84;97155.75;5012848;28;20124;-66
2022/09/22 07:43:51;;;;;;;6.47;3.20;;;;;;;12.61;74.09;97155.59;5022553;28;20367;-65
2022/09/22 07:46:17;;;;;;;6.35;3.17;;;;;;;12.96;72.62;97151.00;5023171;28;20038;-66
2022/09/22 07:48:45;;;;;;;5.90;3.22;;;;;;;14.83;62.60;97150.25;5023259;28;20041;-66
2022/09/22 07:51:19;;;;;;;5.30;2.97;;;;;;;13.00;70.42;97147.13;5021112;28;20037;-66
2022/09/22 07:53:48;;;;;;;5.38;2.45;;;;;;;14.06;69.25;97147.22;5023345;28;20041;-66
2022/09/22 07:56:17;;;;;;;4.90;2.55;;;;;;;14.53;66.26;97149.22;5018201;28;20069;-65
2022/09/22 07:58:52;;;;;;;5.20;2.85;;;;;;;16.74;57.57;97151.63;5004814;28;20157;-65
2022/09/22 08:01:20;;;;;;;6.45;2.80;;;;;;;15.38;60.08;97141.91;5018057;28;20121;-65
2022/09/22 08:03:46;;;;;;;6.32;2.38;;;;;;;17.77;52.77;97160.88;5022107;28;20047;-65
2022/09/22 08:06:12;;;;;;;4.03;2.47;;;;;;;17.79;51.74;97155.75;5017883;28;20124;-65
2022/09/22 08:08:40;;;;;;;6.95;2.30;;;;;;;16.40;56.62;97149.25;5003377;28;20648;-65
2022/09/22 08:11:16;;;;;;;5.72;2.28;;;;;;;16.95;55.61;97156.41;4998614;28;20053;-65
2022/09/22 08:13:47;;;;;;;3.75;2.03;;;;;;;17.96;52.41;97154.09;5021021;28;20041;-64
2022/09/22 08:16:13;;;;;;;4.35;2.22;;;;;;;19.76;46.82;97149.72;5014192;28;20044;-65
2022/09/22 08:18:38;;;;;;;4.97;2.65;;;;;;;19.67;47.53;97150.19;5024196;28;20037;-66
2022/09/22 08:21:05;;;;;;;5.25;2.47;;;;;;;17.19;52.54;97149.22;5019073;28;20038;-65
2022/09/22 08:23:31;;;;;;;3.17;1.92;;;;;;;15.83;56.67;97148.00;5023911;28;20045;-66
2022/09/22 08:26:05;;;;;;;6.05;2.45;;;;;;;17.90;52.78;97150.16;5023451;28;20045;-66
2022/09/22 08:28:31;;;;;;;5.40;2.00;;;;;;;19.40;47.42;97150.91;5020764;28;20037;-66
2022/09/22 08:30:57;;;;;;;5.68;3.58;;;;;;;21.07;44.19;97155.69;5021202;28;20116;-66
2022/09/22 08:33:25;;;;;;;12.45;5.32;;;;;;;21.81;41.21;97154.69;5017154;28;20966;-65
2022/09/22 08:35:55;;;;;;;3.97;2.20;;;;;;;21.80;41.27;97151.09;5020315;28;20463;-66
2022/09/22 08:38:22;;;;;;;5.20;2.40;;;;;;;21.64;41.39;97145.47;4999641;28;20099;-67
2022/09/22 08:41:07;;;;;;;5.28;2.67;;;;;;;15.29;58.63;97149.75;4996561;28;20044;-65
2022/09/22 08:43:33;;;;;;;7.38;2.63;;;;;;;15.02;62.83;97147.22;5013858;28;20136;-65
2022/09/22 08:46:03;;;;;;;7.65;4.00;;;;;;;18.12;54.47;97148.06;5020241;28;20065;-65
2022/09/22 08:54:07;;;;;;;3.50;2.25;;;;;;;20.71;44.02;97148.75;5015490;28;20169;-64
2022/09/22 08:56:42;;;;;;;5.10;2.63;;;;;;;19.94;47.17;97144.72;5025664;28;20117;-66
2022/09/22 08:59:17;;;;;;;5.20;2.67;;;;;;;21.56;42.67;97144.84;5006602;28;20041;-65
2022/09/22 09:02:01;;;;;;;5.68;2.00;;;;;;;21.83;41.10;97150.25;5017456;28;20038;-65
2022/09/22 09:04:45;;;;;;;4.13;2.10;;;;;;;21.15;42.95;97148.78;5000198;28;20046;-65
2022/09/22 09:07:46;;;;;;;4.72;2.13;;;;;;;18.36;50.03;97145.50;5019574;28;20505;-65
2022/09/22 09:10:22;;;;;;;5.95;2.10;;;;;;;17.95;51.49;97150.53;5000587;28;20042;-65
2022/09/22 09:13:03;;;;;;;4.97;2.03;;;;;;;20.52;45.12;97152.22;5003471;28;20041;-65
2022/09/22 09:15:44;;;;;;;4.35;2.20;;;;;;;21.38;42.37;97145.16;5021762;28;20080;-66
2022/09/22 09:18:14;;;;;;;3.40;1.92;;;;;;;21.30;42.90;97143.72;5013144;28;20041;-64
2022/09/22 09:20:45;;;;;;;4.57;1.80;;;;;;;21.11;42.67;97142.50;5026026;28;20103;-65
2022/09/22 09:23:55;;;;;;;5.53;1.73;;;;;;;19.19;47.95;97140.81;5020445;28;20040;-64
2022/09/22 09:26:22;;;;;;;6.32;2.42;;;;;;;15.81;58.43;97132.97;5018584;28;20526;-64
2022/09/22 09:28:54;;;;;;;5.03;2.53;;;;;;;15.84;59.06;97137.72;5026688;28;20130;-65
2022/09/22 09:31:37;;;;;;;4.47;1.77;;;;;;;15.65;59.45;97136.88;5020859;28;20414;-65
2022/09/22 09:34:06;;;;;;;4.43;2.33;;;;;;;16.42;57.83;97139.41;5022526;28;20081;-65
2022/09/22 09:36:37;;;;;;;4.28;2.40;;;;;;;14.72;63.21;97134.41;5027966;28;20053;-67
2022/09/22 09:39:16;;;;;;;8.18;2.40;;;;;;;17.19;57.14;97138.94;5020057;28;20049;-65
2022/09/22 09:41:45;;;;;;;4.82;2.75;;;;;;;16.18;60.82;97126.34;4978926;28;20046;-66
2022/09/22 09:44:20;;;;;;;5.82;2.15;;;;;;;18.19;54.60;97122.28;4984279;28;20398;-65
2022/09/22 09:46:45;;;;;;;6.32;2.25;;;;;;;19.45;50.38;97122.69;5022699;28;20045;-65
2022/09/22 09:49:14;;;;;;;4.97;2.70;;;;;;;19.65;50.52;97120.03;5019292;28;20053;-65
2022/09/22 09:51:43;;;;;;;4.23;2.40;;;;;;;19.53;49.95;97117.03;5021779;28;20065;-65
2022/09/22 09:54:13;;;;;;;10.43;2.80;;;;;;;19.34;49.95;97118.44;5018180;28;20120;-65
2022/09/22 09:57:01;;;;;;;4.10;2.30;;;;;;;19.86;48.93;97113.47;5022279;28;20069;-65
2022/09/22 10:02:18;;;;;;;8.18;2.80;;;;;;;20.09;48.36;97111.91;5015574;28;20045;-65
2022/09/22 10:04:50;;;;;;;4.22;2.30;;;;;;;19.66;49.57;97109.72;5021176;28;20050;-65
2022/09/22 10:07:23;;;;;;;4.43;2.20;;;;;;;20.60;47.85;97101.59;5019174;28;20065;-65
2022/09/22 10:09:50;;;;;;;6.53;2.55;;;;;;;20.25;48.15;97103.72;5021545;28;20072;-66
2022/09/22 10:12:22;;;;;;;7.70;3.35;;;;;;;20.83;46.92;97102.81;5004205;28;20041;-66
2022/09/22 10:14:50;;;;;;;5.28;2.42;;;;;;;19.17;51.96;97109.91;5027850;28;20041;-66
2022/09/22 10:17:28;;;;;;;12.48;3.83;;;;;;;20.14;49.96;97105.91;5023156;28;20085;-65
2022/09/22 10:20:25;;;;;;;5.45;2.70;;;;;;;19.99;49.91;97096.22;5005842;28;20072;-66
2022/09/22 10:22:51;;;;;;;4.82;2.22;;;;;;;19.31;51.96;97097.84;5025032;28;20540;-65
2022/09/22 10:25:27;;;;;;;3.92;2.55;;;;;;;19.83;49.98;97096.81;5012952;28;20167;-65
2022/09/22 10:28:14;;;;;;;5.35;2.70;;;;;;;20.21;48.75;97089.09;5022200;28;20115;-65
2022/09/22 10:30:41;;;;;;;4.32;2.30;;;;;;;19.92;50.33;97085.97;5021226;28;20038;-65
2022/09/22 10:33:10;;;;;;;4.65;2.60;;;;;;;18.27;54.09;97085.75;5016740;28;20071;-65
2022/09/22 10:35:35;;;;;;;8.07;2.67;;;;;;;19.90;51.50;97084.78;5022630;28;20052;-65
2022/09/22 10:38:12;;;;;;;6.63;3.10;;;;;;;20.67;48.67;97083.22;5020017;28;20128;-65
2022/09/22 10:40:41;;;;;;;5.78;2.20;;;;;;;20.28;49.70;97081.88;5022423;28;20121;-65
2022/09/22 10:43:24;;;;;;;3.65;2.05;;;;;;;20.95;48.65;97081.91;4999800;28;20069;-65
2022/09/22 10:46:27;;;;;;;4.55;2.45;;;;;;;20.52;49.40;97082.66;4989490;28;20498;-65
2022/09/22 10:49:14;;;;;;;4.53;2.25;;;;;;;19.96;50.41;97083.13;5009662;28;20151;-65
2022/09/22 10:52:34;;;;;;;7.78;3.00;;;;;;;19.73;52.51;97078.28;5017879;28;20045;-64
2022/09/22 10:55:09;;;;;;;;;;;;;;;19.48;53.65;97074.63;4989815;28;20030;-64
2022/09/22 10:57:52;;;;;;;4.55;2.72;;;;;;;19.55;52.80;97070.94;5018234;28;19968;-64
2022/09/22 11:00:20;;;;;;;6.07;2.42;;;;;;;18.89;56.14;97064.63;4997101;28;20060;-64
2022/09/22 11:03:20;;;;;;;5.72;2.42;;;;;;;19.46;55.35;97071.50;5020745;28;20048;-64
2022/09/22 11:12:20;;;;;;;4.50;2.47;;;;;;;19.43;55.21;97065.97;5017497;28;20140;-64
2022/09/22 11:15:13;;;;;;;6.88;2.85;;;;;;;19.51;54.58;97059.13;5007646;28;20099;-63
2022/09/22 11:18:09;;;;;;;5.13;2.50;;;;;;;19.56;53.26;97061.44;5016561;28;20646;-64
2022/09/22 11:20:41;;;;;;;6.20;2.65;;;;;;;19.98;54.35;97053.69;5016515;28;20714;-65
2022/09/22 11:23:16;;;;;;;4.93;2.83;;;;;;;20.15;52.90;97051.88;5020958;28;20053;-64
2022/09/22 11:26:03;;;;;;;6.07;2.53;;;;;;;20.56;51.29;97049.97;5031765;28;20037;-65
2022/09/22 11:28:35;;;;;;;4.10;2.60;;;;;;;21.26;49.89;97051.84;5029808;28;20048;-65
2022/09/22 11:31:00;;;;;;;8.50;2.67;;;;;;;21.76;48.85;97050.81;5006559;28;20049;-66
2022/09/22 11:33:32;;;;;;;4.45;2.40;;;;;;;21.87;47.26;97047.00;4988952;28;20143;-65
2022/09/22 11:36:15;;;;;;;3.42;1.70;;;;;;;21.74;48.31;97046.91;5024623;28;20045;-65
2022/09/22 11:39:10;;;;;;;3.65;1.63;;;;;;;21.88;45.33;97041.00;5021887;28;20042;-65
2022/09/22 11:41:41;;;;;;;3.97;2.25;;;;;;;22.91;44.11;97036.84;5021786;28;20041;-65
2022/09/22 11:44:24;;;;;;;5.10;1.90;;;;;;;22.75;44.27;97042.47;5017560;28;20093;-65
2022/09/22 11:47:16;;;;;;;4.65;2.03;;;;;;;21.82;48.34;97042.72;5015216;28;20041;-65
2022/09/22 11:50:16;;;;;;;4.57;2.40;;;;;;;20.35;52.50;97031.69;5021489;28;20052;-64
2022/09/22 11:53:11;;;;;;;5.70;2.40;;;;;;;19.61;54.79;97033.19;4958304;28;20061;-64
2022/09/22 11:55:51;;;;;;;8.35;2.78;;;;;;;19.53;55.05;97030.91;5020874;28;20379;-65
2022/09/22 11:58:21;;;;;;;8.95;2.30;;;;;;;18.66;57.82;97029.16;5015010;28;20041;-64
2022/09/22 12:00:52;;;;;;;4.28;2.55;;;;;;;18.80;58.52;97016.31;5001744;28;20052;-64
2022/09/22 12:03:36;;;;;;;7.20;2.63;;;;;;;18.96;58.87;97016.56;4985516;28;20041;-66
2022/09/22 12:06:04;;;;;;;4.28;2.35;;;;;;;18.64;60.05;97016.91;5002410;28;20043;-65
2022/09/22 12:08:39;;;;;;;7.78;2.72;;;;;;;18.69;60.79;97005.31;4994042;28;20128;-64